createdAt,value
2023-01-03T00:00:16.346Z,101216.31
2023-01-03T00:01:18.347Z,101220.22
2023-01-03T00:02:21.120Z,101217.34
2023-01-03T00:03:25.231Z,101223.50
2023-01-03T00:04:28.263Z,101223.16
2023-01-03T00:05:30.296Z,101224.84
2023-01-03T00:06:34.469Z,101231.16
2023-01-03T00:07:36.190Z,101219.06
2023-01-03T00:08:38.876Z,101219.72
2023-01-03T00:09:41.592Z,101219.91
2023-01-03T00:10:43.767Z,101227.94
2023-01-03T00:12:05.201Z,101222.47
2023-01-03T00:13:07.950Z,101223.81
2023-01-03T00:14:11.216Z,101220.94
2023-01-03T00:15:15.819Z,101226.41
2023-01-03T00:16:18.809Z,101227.56
2023-01-03T00:17:22.090Z,101231.72
2023-01-03T00:18:26.718Z,101223.66
2023-01-03T00:19:32.194Z,101218.34
2023-01-03T00:20:35.325Z,101220.94
2023-01-03T00:21:37.072Z,101221.09
2023-01-03T00:22:39.845Z,101223.16
2023-01-03T00:23:41.559Z,101213.91
2023-01-03T00:24:44.790Z,101221.94
2023-01-03T00:25:46.442Z,101226.91
2023-01-03T00:26:49.173Z,101223.16
2023-01-03T00:27:50.885Z,101223.81
2023-01-03T00:28:53.600Z,101230.84
2023-01-03T00:29:56.397Z,101226.25
2023-01-03T00:30:58.132Z,101232.72
2023-01-03T00:32:01.010Z,101225.88
2023-01-03T00:33:04.040Z,101225.19
2023-01-03T00:34:09.189Z,101229.47
2023-01-03T00:35:11.961Z,101229.47
2023-01-03T00:36:13.742Z,101225.69
2023-01-03T00:37:16.638Z,101227.94
2023-01-03T00:38:18.427Z,101228.13
2023-01-03T00:39:21.515Z,101223.31
2023-01-03T00:40:23.341Z,101222.31
2023-01-03T00:41:26.155Z,101223.16
2023-01-03T00:42:28.818Z,101224.19
2023-01-03T00:43:30.651Z,101216.84
2023-01-03T00:44:33.492Z,101221.13
2023-01-03T00:45:35.802Z,101217.53
2023-01-03T00:46:38.866Z,101221.28
2023-01-03T00:47:40.578Z,101224.88
2023-01-03T00:48:43.577Z,101217.00
2023-01-03T00:49:46.612Z,101225.53
2023-01-03T00:50:49.399Z,101224.53
2023-01-03T00:51:53.823Z,101216.84
2023-01-03T00:52:56.249Z,101223.53
2023-01-03T00:54:00.437Z,101221.81
2023-01-03T00:55:02.244Z,101220.78
2023-01-03T00:56:05.568Z,101218.19
2023-01-03T00:57:07.238Z,101219.41
2023-01-03T00:58:09.990Z,101221.13
2023-01-03T00:59:12.658Z,101222.16
2023-01-03T01:00:16.403Z,101227.13
2023-01-03T01:01:20.734Z,101236.19
2023-01-03T01:02:26.394Z,101235.47
2023-01-03T01:03:31.107Z,101241.66
2023-01-03T01:04:34.965Z,101236.19
2023-01-03T01:05:38.037Z,101243.38
2023-01-03T01:06:42.680Z,101237.69
2023-01-03T01:07:44.350Z,101247.28
2023-01-03T01:08:47.831Z,101246.09
2023-01-03T01:09:51.361Z,101242.81
2023-01-03T01:11:02.098Z,101252.91
2023-01-03T01:12:05.602Z,101240.28
2023-01-03T01:13:07.265Z,101246.75
2023-01-03T01:14:20.874Z,101251.22
2023-01-03T01:15:22.648Z,101257.88
2023-01-03T01:16:28.244Z,101259.59
2023-01-03T01:17:30.053Z,101252.25
2023-01-03T01:18:32.807Z,101260.44
2023-01-03T01:19:37.409Z,101253.59
2023-01-03T01:20:40.885Z,101262.47
2023-01-03T01:21:43.780Z,101260.75
2023-01-03T01:22:46.531Z,101249.00
2023-01-03T01:23:48.613Z,101259.06
2023-01-03T01:24:51.303Z,101255.97
2023-01-03T01:25:53.010Z,101257.66
2023-01-03T01:26:55.725Z,101269.31
2023-01-03T01:27:57.471Z,101259.38
2023-01-03T01:29:00.172Z,101267.41
2023-01-03T01:30:01.968Z,101264.34
2023-01-03T01:31:06.073Z,101264.81
2023-01-03T01:32:07.875Z,101270.13
2023-01-03T01:33:10.561Z,101270.50
2023-01-03T01:34:13.148Z,101267.94
2023-01-03T01:35:15.914Z,101273.91
2023-01-03T01:36:21.032Z,101269.59
2023-01-03T01:37:23.730Z,101276.63
2023-01-03T01:38:25.490Z,101275.44
2023-01-03T01:39:29.708Z,101279.88
2023-01-03T01:40:32.033Z,101283.47
2023-01-03T01:41:53.816Z,101281.59
2023-01-03T01:43:14.312Z,101269.47
2023-01-03T01:44:48.036Z,101278.00
2023-01-03T01:45:49.739Z,101271.69
2023-01-03T01:46:52.570Z,101273.41
2023-01-03T01:47:55.893Z,101275.97
2023-01-03T01:49:01.174Z,101272.19
2023-01-03T01:50:14.393Z,101277.00
2023-01-03T01:51:17.338Z,101275.28
2023-01-03T01:52:21.028Z,101280.59
2023-01-03T01:53:26.711Z,101282.47
2023-01-03T01:54:28.747Z,101283.25
2023-01-03T01:55:33.158Z,101282.09
2023-01-03T01:56:38.193Z,101281.75
2023-01-03T01:57:42.018Z,101277.31
2023-01-03T01:58:45.365Z,101278.16
2023-01-03T01:59:48.631Z,101287.75
2023-01-03T02:00:50.274Z,101276.47
2023-01-03T02:01:53.080Z,101275.75
2023-01-03T02:02:55.653Z,101282.41
2023-01-03T02:04:01.385Z,101284.97
2023-01-03T02:05:06.824Z,101281.38
2023-01-03T02:06:11.286Z,101287.53
2023-01-03T02:07:13.001Z,101285.47
2023-01-03T02:08:17.135Z,101289.41
2023-01-03T02:09:19.063Z,101281.03
2023-01-03T02:10:26.472Z,101290.78
2023-01-03T02:11:33.910Z,101291.44
2023-01-03T02:12:57.695Z,101289.41
2023-01-03T02:14:08.500Z,101286.84
2023-01-03T02:15:15.887Z,101290.28
2023-01-03T02:16:37.984Z,101284.25
2023-01-03T02:17:56.292Z,101297.91
2023-01-03T02:19:10.870Z,101281.84
2023-01-03T02:20:38.445Z,101283.88
2023-01-03T02:21:59.081Z,101283.13
2023-01-03T02:23:28.618Z,101285.56
2023-01-03T02:25:14.619Z,101285.72
2023-01-03T02:26:37.170Z,101283.50
2023-01-03T02:27:56.869Z,101284.84
2023-01-03T02:29:19.867Z,101282.13
2023-01-03T02:30:33.065Z,101285.03
2023-01-03T02:31:40.239Z,101278.88
2023-01-03T02:32:45.339Z,101273.75
2023-01-03T02:33:54.714Z,101279.56
2023-01-03T02:35:03.776Z,101278.38
2023-01-03T02:36:12.196Z,101281.44
2023-01-03T02:37:20.572Z,101279.25
2023-01-03T02:38:28.140Z,101272.19
2023-01-03T02:39:40.901Z,101267.78
2023-01-03T02:40:46.417Z,101277.66
2023-01-03T02:42:14.560Z,101279.88
2023-01-03T02:43:22.136Z,101278.13
2023-01-03T02:44:28.326Z,101278.50
2023-01-03T02:45:46.982Z,101282.44
2023-01-03T02:46:51.129Z,101278.66
2023-01-03T02:47:57.168Z,101288.91
2023-01-03T02:49:02.215Z,101294.53
2023-01-03T02:50:06.186Z,101288.91
2023-01-03T02:51:11.047Z,101290.28
2023-01-03T02:52:15.200Z,101292.00
2023-01-03T02:53:20.921Z,101288.22
2023-01-03T02:54:28.872Z,101303.63
2023-01-03T02:55:31.428Z,101291.69
2023-01-03T02:56:38.987Z,101290.81
2023-01-03T02:57:45.729Z,101294.56
2023-01-03T02:58:51.495Z,101286.53
2023-01-03T02:59:55.467Z,101295.41
2023-01-03T03:01:00.336Z,101292.69
2023-01-03T03:02:03.265Z,101293.56
2023-01-03T03:03:09.227Z,101295.28
2023-01-03T03:04:12.181Z,101298.00
2023-01-03T03:05:22.690Z,101295.13
2023-01-03T03:06:29.524Z,101297.00
2023-01-03T03:07:35.721Z,101308.78
2023-01-03T03:08:37.803Z,101296.13
2023-01-03T03:09:54.400Z,101295.28
2023-01-03T03:11:14.482Z,101305.50
2023-01-03T03:12:34.119Z,101301.22
2023-01-03T03:13:42.424Z,101296.91
2023-01-03T03:14:47.560Z,101308.91
2023-01-03T03:15:54.809Z,101305.31
2023-01-03T03:17:00.957Z,101307.19
2023-01-03T03:18:07.352Z,101309.06
2023-01-03T03:19:38.878Z,101306.31
2023-01-03T03:20:59.108Z,101306.66
2023-01-03T03:22:20.010Z,101308.34
2023-01-03T03:23:43.539Z,101309.19
2023-01-03T03:24:52.305Z,101303.91
2023-01-03T03:25:56.380Z,101299.47
2023-01-03T03:27:00.000Z,101303.22
2023-01-03T03:28:24.054Z,101313.28
2023-01-03T03:29:26.517Z,101311.56
2023-01-03T03:30:29.055Z,101319.06
2023-01-03T03:31:35.132Z,101322.66
2023-01-03T03:32:38.758Z,101316.66
2023-01-03T03:33:46.293Z,101319.38
2023-01-03T03:34:49.643Z,101314.97
2023-01-03T03:35:56.317Z,101322.28
2023-01-03T03:37:00.489Z,101325.19
2023-01-03T03:38:05.110Z,101313.38
2023-01-03T03:39:28.348Z,101319.00
2023-01-03T03:40:51.408Z,101321.91
2023-01-03T03:42:14.892Z,101316.59
2023-01-03T03:43:39.772Z,101321.34
2023-01-03T03:45:02.329Z,101324.25
2023-01-03T03:46:07.912Z,101322.69
2023-01-03T03:47:15.696Z,101324.75
2023-01-03T03:48:24.250Z,101323.16
2023-01-03T03:49:39.897Z,101319.75
2023-01-03T03:50:46.778Z,101318.03
2023-01-03T03:51:49.884Z,101322.78
2023-01-03T03:52:54.839Z,101322.09
2023-01-03T03:53:57.672Z,101328.56
2023-01-03T03:55:03.026Z,101330.44
2023-01-03T03:56:08.277Z,101330.44
2023-01-03T03:57:13.893Z,101330.59
2023-01-03T03:58:18.850Z,101328.91
2023-01-03T03:59:22.263Z,101327.56
2023-01-03T04:00:25.820Z,101338.50
2023-01-03T04:01:29.845Z,101331.63
2023-01-03T04:02:33.273Z,101333.50
2023-01-03T04:03:38.223Z,101334.50
2023-01-03T04:04:43.383Z,101336.69
2023-01-03T04:05:48.491Z,101336.69
2023-01-03T04:06:51.351Z,101336.69
2023-01-03T04:07:54.525Z,101345.72
2023-01-03T04:08:56.578Z,101344.31
2023-01-03T04:09:59.269Z,101339.88
2023-01-03T04:11:05.901Z,101349.22
2023-01-03T04:12:16.267Z,101340.88
2023-01-03T04:13:18.448Z,101337.44
2023-01-03T04:14:21.162Z,101339.03
2023-01-03T04:15:22.861Z,101343.47
2023-01-03T04:16:25.949Z,101348.75
2023-01-03T04:17:27.675Z,101353.06
2023-01-03T04:18:30.825Z,101345.56
2023-01-03T04:19:33.914Z,101345.56
2023-01-03T04:20:36.573Z,101355.63
2023-01-03T04:21:38.367Z,101354.94
2023-01-03T04:22:41.150Z,101350.34
2023-01-03T04:23:42.847Z,101355.09
2023-01-03T04:24:45.640Z,101347.22
2023-01-03T04:25:49.146Z,101355.41
2023-01-03T04:26:51.900Z,101351.28
2023-01-03T04:27:53.674Z,101349.56
2023-01-03T04:28:56.490Z,101339.97
2023-01-03T04:29:58.193Z,101344.00
2023-01-03T04:31:00.893Z,101338.72
2023-01-03T04:32:02.683Z,101338.84
2023-01-03T04:33:06.124Z,101341.59
2023-01-03T04:34:08.228Z,101343.31
2023-01-03T04:35:12.317Z,101343.63
2023-01-03T04:36:14.014Z,101348.38
2023-01-03T04:37:16.693Z,101352.97
2023-01-03T04:38:19.576Z,101345.66
2023-01-03T04:39:21.365Z,101353.28
2023-01-03T04:40:24.182Z,101354.44
2023-01-03T04:41:25.918Z,101355.31
2023-01-03T04:42:46.417Z,101352.44
2023-01-03T04:44:04.891Z,101354.44
2023-01-03T04:45:07.780Z,101356.16
2023-01-03T04:46:10.576Z,101356.16
2023-01-03T04:47:12.293Z,101348.84
2023-01-03T04:48:15.370Z,101350.00
2023-01-03T04:49:17.087Z,101354.75
2023-01-03T04:50:21.116Z,101354.75
2023-01-03T04:51:22.864Z,101351.19
2023-01-03T04:52:25.573Z,101352.03
2023-01-03T04:53:27.767Z,101354.91
2023-01-03T04:54:30.576Z,101355.06
2023-01-03T04:55:32.329Z,101355.22
2023-01-03T04:56:37.551Z,101351.66
2023-01-03T04:57:39.323Z,101355.22
2023-01-03T04:58:42.070Z,101357.09
2023-01-03T04:59:43.736Z,101351.97
2023-01-03T05:00:46.694Z,101360.97
2023-01-03T05:01:52.449Z,101358.44
2023-01-03T05:02:55.383Z,101356.56
2023-01-03T05:03:58.695Z,101353.84
2023-01-03T05:05:01.429Z,101353.66
2023-01-03T05:06:06.208Z,101355.53
2023-01-03T05:07:08.984Z,101351.66
2023-01-03T05:08:12.302Z,101362.41
2023-01-03T05:09:15.089Z,101347.72
2023-01-03T05:10:17.029Z,101362.25
2023-01-03T05:11:19.797Z,101365.84
2023-01-03T05:12:21.563Z,101360.38
2023-01-03T05:13:24.280Z,101357.63
2023-01-03T05:14:26.042Z,101368.56
2023-01-03T05:15:29.189Z,101368.56
2023-01-03T05:16:30.991Z,101370.44
2023-01-03T05:17:33.758Z,101368.69
2023-01-03T05:18:35.528Z,101359.69
2023-01-03T05:19:58.254Z,101366.84
2023-01-03T05:21:25.798Z,101361.38
2023-01-03T05:22:46.144Z,101363.25
2023-01-03T05:24:06.510Z,101361.69
2023-01-03T05:25:27.785Z,101361.16
2023-01-03T05:26:30.530Z,101361.16
2023-01-03T05:27:33.271Z,101364.88
2023-01-03T05:28:35.555Z,101361.44
2023-01-03T05:29:38.411Z,101364.34
2023-01-03T05:30:40.115Z,101366.22
2023-01-03T05:31:42.906Z,101369.81
2023-01-03T05:32:44.850Z,101371.50
2023-01-03T05:33:47.705Z,101371.34
2023-01-03T05:34:49.379Z,101372.34
2023-01-03T05:35:52.079Z,101366.75
2023-01-03T05:36:56.280Z,101364.88
2023-01-03T05:37:58.061Z,101366.75
2023-01-03T05:39:00.717Z,101370.34
2023-01-03T05:40:02.434Z,101367.63
2023-01-03T05:41:05.878Z,101373.06
2023-01-03T05:42:07.648Z,101365.91
2023-01-03T05:43:10.655Z,101373.06
2023-01-03T05:44:12.337Z,101372.22
2023-01-03T05:45:15.064Z,101370.34
2023-01-03T05:46:16.981Z,101374.09
2023-01-03T05:47:19.718Z,101368.47
2023-01-03T05:48:22.204Z,101370.34
2023-01-03T05:49:24.962Z,101364.88
2023-01-03T05:50:26.780Z,101362.16
2023-01-03T05:51:29.488Z,101369.34
2023-01-03T05:52:32.565Z,101369.34
2023-01-03T05:53:35.271Z,101367.63
2023-01-03T05:54:37.311Z,101366.63
2023-01-03T05:55:40.387Z,101375.81
2023-01-03T05:56:42.066Z,101369.50
2023-01-03T05:57:46.874Z,101372.34
2023-01-03T05:58:49.186Z,101370.50
2023-01-03T05:59:51.910Z,101370.66
2023-01-03T06:00:53.615Z,101374.22
2023-01-03T06:01:56.525Z,101377.13
2023-01-03T06:02:58.656Z,101383.59
2023-01-03T06:04:01.559Z,101379.31
2023-01-03T06:05:03.358Z,101380.31
2023-01-03T06:06:07.050Z,101376.00
2023-01-03T06:07:08.741Z,101387.94
2023-01-03T06:08:12.891Z,101380.06
2023-01-03T06:09:14.647Z,101390.13
2023-01-03T06:10:17.505Z,101381.06
2023-01-03T06:11:19.634Z,101389.44
2023-01-03T06:12:22.350Z,101377.66
2023-01-03T06:13:24.217Z,101379.66
2023-01-03T06:14:26.937Z,101383.38
2023-01-03T06:15:28.829Z,101377.06
2023-01-03T06:16:48.939Z,101380.84
2023-01-03T06:18:00.169Z,101388.16
2023-01-03T06:19:02.493Z,101384.72
2023-01-03T06:20:05.886Z,101388.31
2023-01-03T06:21:07.570Z,101381.13
2023-01-03T06:22:11.289Z,101384.72
2023-01-03T06:23:14.516Z,101382.97
2023-01-03T06:24:17.295Z,101386.88
2023-01-03T06:25:21.848Z,101388.22
2023-01-03T06:26:25.455Z,101386.94
2023-01-03T06:27:27.217Z,101395.72
2023-01-03T06:28:29.908Z,101386.13
2023-01-03T06:29:32.636Z,101392.75
2023-01-03T06:30:36.476Z,101400.22
2023-01-03T06:31:39.171Z,101392.16
2023-01-03T06:32:40.865Z,101394.19
2023-01-03T06:33:43.829Z,101397.06
2023-01-03T06:34:45.753Z,101389.88
2023-01-03T06:35:48.519Z,101399.06
2023-01-03T06:36:50.256Z,101395.34
2023-01-03T06:37:53.017Z,101402.66
2023-01-03T06:38:56.051Z,101399.06
2023-01-03T06:39:59.023Z,101405.56
2023-01-03T06:41:00.998Z,101396.34
2023-01-03T06:42:24.209Z,101406.25
2023-01-03T06:43:26.246Z,101398.06
2023-01-03T06:44:29.002Z,101403.38
2023-01-03T06:45:49.451Z,101399.78
2023-01-03T06:47:09.857Z,101405.78
2023-01-03T06:48:30.053Z,101404.78
2023-01-03T06:50:01.787Z,101404.47
2023-01-03T06:51:21.832Z,101400.63
2023-01-03T06:52:50.556Z,101407.63
2023-01-03T06:53:53.262Z,101404.06
2023-01-03T06:54:57.377Z,101405.06
2023-01-03T06:55:59.448Z,101399.63
2023-01-03T06:57:02.222Z,101405.94
2023-01-03T06:58:03.957Z,101408.50
2023-01-03T06:59:06.684Z,101409.53
2023-01-03T07:00:09.821Z,101408.66
2023-01-03T07:01:14.617Z,101405.94
2023-01-03T07:02:16.596Z,101416.84
2023-01-03T07:03:19.362Z,101413.25
2023-01-03T07:04:22.762Z,101414.97
2023-01-03T07:05:25.781Z,101408.66
2023-01-03T07:06:29.096Z,101413.94
2023-01-03T07:07:31.431Z,101413.94
2023-01-03T07:08:34.287Z,101420.13
2023-01-03T07:09:36.964Z,101412.94
2023-01-03T07:10:40.008Z,101415.66
2023-01-03T07:11:43.027Z,101413.81
2023-01-03T07:13:03.402Z,101411.06
2023-01-03T07:14:06.385Z,101419.41
2023-01-03T07:15:10.411Z,101423.00
2023-01-03T07:16:15.789Z,101422.13
2023-01-03T07:17:18.012Z,101422.28
2023-01-03T07:18:20.701Z,101421.44
2023-01-03T07:19:25.330Z,101424.31
2023-01-03T07:20:27.113Z,101423.31
2023-01-03T07:21:31.110Z,101422.28
2023-01-03T07:22:32.779Z,101428.75
2023-01-03T07:23:35.603Z,101424.31
2023-01-03T07:24:38.283Z,101426.16
2023-01-03T07:25:41.945Z,101423.56
2023-01-03T07:26:44.685Z,101428.19
2023-01-03T07:27:58.720Z,101422.75
2023-01-03T07:29:06.271Z,101423.88
2023-01-03T07:30:09.089Z,101430.19
2023-01-03T07:31:11.818Z,101423.03
2023-01-03T07:32:13.651Z,101426.63
2023-01-03T07:33:17.263Z,101425.63
2023-01-03T07:34:19.361Z,101439.25
2023-01-03T07:35:22.086Z,101430.06
2023-01-03T07:36:24.742Z,101432.78
2023-01-03T07:37:26.480Z,101431.94
2023-01-03T07:38:29.574Z,101438.38
2023-01-03T07:39:31.270Z,101432.06
2023-01-03T07:40:34.222Z,101436.66
2023-01-03T07:41:55.857Z,101434.09
2023-01-03T07:43:16.323Z,101433.50
2023-01-03T07:44:19.183Z,101437.25
2023-01-03T07:45:20.851Z,101441.88
2023-01-03T07:46:25.383Z,101439.28
2023-01-03T07:47:27.171Z,101446.59
2023-01-03T07:48:30.023Z,101441.28
2023-01-03T07:49:32.688Z,101443.13
2023-01-03T07:50:34.416Z,101449.63
2023-01-03T07:51:37.130Z,101450.63
2023-01-03T07:52:38.884Z,101446.03
2023-01-03T07:53:42.205Z,101455.34
2023-01-03T07:54:43.939Z,101450.06
2023-01-03T07:55:46.622Z,101450.06
2023-01-03T07:56:50.742Z,101455.66
2023-01-03T07:57:52.441Z,101458.38
2023-01-03T07:58:56.007Z,101454.78
2023-01-03T07:59:57.761Z,101461.13
2023-01-03T08:01:05.249Z,101461.97
2023-01-03T08:02:08.072Z,101461.97
2023-01-03T08:03:11.956Z,101456.34
2023-01-03T08:04:14.812Z,101460.97
2023-01-03T08:05:16.607Z,101461.66
2023-01-03T08:06:21.002Z,101465.25
2023-01-03T08:07:22.674Z,101459.81
2023-01-03T08:08:25.322Z,101462.53
2023-01-03T08:09:45.725Z,101463.41
2023-01-03T08:11:06.022Z,101459.66
2023-01-03T08:12:28.020Z,101467.97
2023-01-03T08:13:30.832Z,101465.25
2023-01-03T08:14:32.542Z,101464.81
2023-01-03T08:15:35.316Z,101466.84
2023-01-03T08:16:37.038Z,101469.41
2023-01-03T08:17:39.790Z,101469.41
2023-01-03T08:18:42.426Z,101471.13
2023-01-03T08:19:45.980Z,101478.31
2023-01-03T08:20:48.001Z,101478.31
2023-01-03T08:21:50.867Z,101480.88
2023-01-03T08:22:55.365Z,101482.59
2023-01-03T08:23:58.045Z,101485.19
2023-01-03T08:24:59.744Z,101485.06
2023-01-03T08:26:03.187Z,101483.19
2023-01-03T08:27:05.906Z,101493.78
2023-01-03T08:28:10.032Z,101487.34
2023-01-03T08:29:12.764Z,101488.03
2023-01-03T08:30:14.425Z,101484.84
2023-01-03T08:31:19.467Z,101488.31
2023-01-03T08:32:22.566Z,101494.47
2023-01-03T08:33:25.127Z,101499.31
2023-01-03T08:34:30.267Z,101494.44
2023-01-03T08:35:35.146Z,101495.88
2023-01-03T08:36:40.184Z,101501.34
2023-01-03T08:37:42.025Z,101495.56
2023-01-03T08:38:47.379Z,101500.88
2023-01-03T08:39:51.444Z,101500.03
2023-01-03T08:40:54.740Z,101496.84
2023-01-03T08:41:59.313Z,101497.09
2023-01-03T08:43:04.050Z,101505.53
2023-01-03T08:44:08.857Z,101501.09
2023-01-03T08:45:15.602Z,101502.38
2023-01-03T08:46:18.145Z,101501.78
2023-01-03T08:47:21.605Z,101509.50
2023-01-03T08:48:24.523Z,101509.19
2023-01-03T08:49:26.558Z,101507.03
2023-01-03T08:50:30.456Z,101509.31
2023-01-03T08:51:33.331Z,101503.22
2023-01-03T08:52:35.642Z,101505.69
2023-01-03T08:53:38.484Z,101507.09
2023-01-03T08:54:40.266Z,101508.19
2023-01-03T08:55:44.037Z,101503.97
2023-01-03T08:56:45.748Z,101518.94
2023-01-03T08:57:48.433Z,101517.31
2023-01-03T08:58:50.101Z,101511.38
2023-01-03T08:59:54.210Z,101514.53
2023-01-03T09:00:56.987Z,101509.59
2023-01-03T09:02:00.188Z,101521.06
2023-01-03T09:03:03.297Z,101517.00
2023-01-03T09:04:05.592Z,101516.41
2023-01-03T09:05:09.641Z,101516.66
2023-01-03T09:06:11.405Z,101520.78
2023-01-03T09:07:14.117Z,101523.03
2023-01-03T09:08:18.453Z,101521.72
2023-01-03T09:09:21.215Z,101532.19
2023-01-03T09:10:23.047Z,101533.75
2023-01-03T09:11:25.939Z,101528.28
2023-01-03T09:12:28.077Z,101525.91
2023-01-03T09:13:30.962Z,101528.00
2023-01-03T09:14:32.735Z,101525.00
2023-01-03T09:15:36.766Z,101523.78
2023-01-03T09:16:42.768Z,101522.31
2023-01-03T09:17:49.931Z,101524.91
2023-01-03T09:18:51.729Z,101527.16
2023-01-03T09:19:54.453Z,101528.69
2023-01-03T09:20:57.201Z,101524.94
2023-01-03T09:21:59.859Z,101518.84
2023-01-03T09:23:02.648Z,101525.88
2023-01-03T09:24:05.010Z,101521.78
2023-01-03T09:25:08.649Z,101521.78
2023-01-03T09:26:11.747Z,101518.56
2023-01-03T09:27:14.477Z,101512.94
2023-01-03T09:28:17.181Z,101519.66
2023-01-03T09:29:19.029Z,101518.84
2023-01-03T09:30:21.734Z,101516.31
2023-01-03T09:31:25.774Z,101515.53
2023-01-03T09:32:28.675Z,101518.34
2023-01-03T09:33:31.384Z,101515.97
2023-01-03T09:34:33.177Z,101515.47
2023-01-03T09:35:35.849Z,101517.16
2023-01-03T09:36:38.656Z,101512.78
2023-01-03T09:37:45.454Z,101523.38
2023-01-03T09:38:51.359Z,101520.34
2023-01-03T09:39:53.103Z,101518.78
2023-01-03T09:41:00.724Z,101515.88
2023-01-03T09:42:21.458Z,101516.41
2023-01-03T09:43:32.233Z,101517.78
2023-01-03T09:44:34.067Z,101523.09
2023-01-03T09:45:38.822Z,101525.50
2023-01-03T09:46:42.934Z,101518.28
2023-01-03T09:47:46.093Z,101517.78
2023-01-03T09:48:50.128Z,101518.50
2023-01-03T09:50:26.603Z,101522.41
2023-01-03T09:51:38.175Z,101518.34
2023-01-03T09:53:01.661Z,101515.78
2023-01-03T09:54:22.229Z,101513.03
2023-01-03T09:55:47.167Z,101515.13
2023-01-03T09:57:08.107Z,101515.47
2023-01-03T09:58:32.166Z,101513.97
2023-01-03T09:59:55.130Z,101510.53
2023-01-03T10:01:15.918Z,101516.00
2023-01-03T10:02:56.718Z,101525.13
2023-01-03T10:04:10.437Z,101517.94
2023-01-03T10:05:25.082Z,101518.66
2023-01-03T10:06:34.538Z,101529.75
2023-01-03T10:07:51.156Z,101517.63
2023-01-03T10:09:03.816Z,101518.28
2023-01-03T10:10:14.559Z,101514.88
2023-01-03T10:11:23.063Z,101524.13
2023-01-03T10:12:28.967Z,101518.13
2023-01-03T10:13:41.437Z,101514.06
2023-01-03T10:14:54.391Z,101518.72
2023-01-03T10:16:02.875Z,101514.75
2023-01-03T10:17:13.419Z,101519.22
2023-01-03T10:18:31.627Z,101509.47
2023-01-03T10:19:48.625Z,101514.28
2023-01-03T10:20:52.725Z,101521.47
2023-01-03T10:22:01.000Z,101517.69
2023-01-03T10:23:05.295Z,101514.78
2023-01-03T10:24:17.799Z,101519.25
2023-01-03T10:25:22.624Z,101514.78
2023-01-03T10:26:32.641Z,101514.94
2023-01-03T10:27:37.139Z,101505.84
2023-01-03T10:28:42.474Z,101518.03
2023-01-03T10:29:46.310Z,101509.28
2023-01-03T10:31:07.831Z,101504.31
2023-01-03T10:32:25.011Z,101507.75
2023-01-03T10:33:35.180Z,101511.88
2023-01-03T10:34:38.725Z,101510.50
2023-01-03T10:35:40.524Z,101511.69
2023-01-03T10:36:43.229Z,101522.00
2023-01-03T10:37:45.428Z,101516.00
2023-01-03T10:38:52.825Z,101513.41
2023-01-03T10:40:02.485Z,101511.34
2023-01-03T10:41:06.249Z,101516.00
2023-01-03T10:42:09.052Z,101516.66
2023-01-03T10:43:14.349Z,101515.28
2023-01-03T10:44:25.514Z,101519.41
2023-01-03T10:45:27.374Z,101513.56
2023-01-03T10:46:31.040Z,101509.97
2023-01-03T10:47:32.909Z,101512.88
2023-01-03T10:49:00.031Z,101518.38
2023-01-03T10:50:02.218Z,101517.88
2023-01-03T10:51:06.015Z,101515.63
2023-01-03T10:52:13.810Z,101512.38
2023-01-03T10:53:18.062Z,101510.66
2023-01-03T10:54:26.216Z,101519.91
2023-01-03T10:55:28.532Z,101507.25
2023-01-03T10:56:31.682Z,101518.91
2023-01-03T10:57:40.108Z,101522.16
2023-01-03T10:58:42.947Z,101506.00
2023-01-03T10:59:50.361Z,101511.69
2023-01-03T11:00:54.493Z,101503.97
2023-01-03T11:01:58.727Z,101506.69
2023-01-03T11:03:16.836Z,101514.28
2023-01-03T11:04:20.156Z,101513.75
2023-01-03T11:05:24.786Z,101509.44
2023-01-03T11:06:27.456Z,101504.66
2023-01-03T11:07:29.448Z,101513.06
2023-01-03T11:08:38.707Z,101510.13
2023-01-03T11:09:51.502Z,101502.44
2023-01-03T11:10:59.186Z,101505.34
2023-01-03T11:12:05.498Z,101506.69
2023-01-03T11:13:23.253Z,101517.00
2023-01-03T11:14:27.250Z,101504.31
2023-01-03T11:15:39.147Z,101513.75
2023-01-03T11:16:42.172Z,101506.00
2023-01-03T11:17:55.118Z,101508.75
2023-01-03T11:19:01.521Z,101506.19
2023-01-03T11:20:19.011Z,101499.50
2023-01-03T11:21:26.883Z,101491.81
2023-01-03T11:22:38.217Z,101502.97
2023-01-03T11:24:04.593Z,101495.38
2023-01-03T11:25:21.278Z,101493.28
2023-01-03T11:26:30.507Z,101498.78
2023-01-03T11:27:46.692Z,101489.88
2023-01-03T11:29:06.396Z,101495.03
2023-01-03T11:30:18.925Z,101499.44
2023-01-03T11:31:34.225Z,101498.25
2023-01-03T11:32:47.795Z,101493.09
2023-01-03T11:34:01.321Z,101503.56
2023-01-03T11:35:23.521Z,101488.78
2023-01-03T11:36:44.714Z,101505.41
2023-01-03T11:37:51.634Z,101493.56
2023-01-03T11:39:02.145Z,101480.22
2023-01-03T11:40:11.625Z,101498.31
2023-01-03T11:41:35.869Z,101493.56
2023-01-03T11:42:46.478Z,101493.19
2023-01-03T11:44:03.658Z,101498.16
2023-01-03T11:45:21.095Z,101503.81
2023-01-03T11:46:35.339Z,101495.06
2023-01-03T11:47:42.948Z,101494.72
2023-01-03T11:49:08.854Z,101500.75
2023-01-03T11:50:27.196Z,101499.03
2023-01-03T11:51:36.069Z,101494.38
2023-01-03T11:52:44.919Z,101492.34
2023-01-03T11:54:00.612Z,101496.94
2023-01-03T11:55:43.765Z,101492.97
2023-01-03T11:56:48.293Z,101488.00
2023-01-03T11:57:57.577Z,101487.50
2023-01-03T11:59:19.625Z,101491.06
2023-01-03T12:00:27.559Z,101484.53
2023-01-03T12:01:44.737Z,101492.75
2023-01-03T12:03:17.499Z,101489.13
2023-01-03T12:04:27.715Z,101481.75
2023-01-03T12:05:44.174Z,101485.13
2023-01-03T12:07:03.517Z,101483.13
2023-01-03T12:09:01.425Z,101489.13
2023-01-03T12:10:08.686Z,101484.00
2023-01-03T12:11:32.893Z,101477.31
2023-01-03T12:12:59.034Z,101470.97
2023-01-03T12:14:05.322Z,101470.81
2023-01-03T12:15:17.775Z,101464.13
2023-01-03T12:16:25.315Z,101472.34
2023-01-03T12:17:41.907Z,101467.22
2023-01-03T12:18:47.437Z,101470.81
2023-01-03T12:19:54.448Z,101471.72
2023-01-03T12:21:02.534Z,101460.09
2023-01-03T12:22:11.576Z,101463.88
2023-01-03T12:23:17.313Z,101466.94
2023-01-03T12:24:24.009Z,101465.22
2023-01-03T12:25:29.912Z,101462.19
2023-01-03T12:26:33.413Z,101459.25
2023-01-03T12:27:39.188Z,101463.22
2023-01-03T12:28:43.644Z,101461.31
2023-01-03T12:29:50.798Z,101456.72
2023-01-03T12:30:58.009Z,101455.50
2023-01-03T12:32:07.278Z,101461.16
2023-01-03T12:33:18.731Z,101463.56
2023-01-03T12:34:26.969Z,101459.09
2023-01-03T12:35:32.138Z,101457.06
2023-01-03T12:36:40.230Z,101460.97
2023-01-03T12:37:43.635Z,101456.38
2023-01-03T12:38:50.009Z,101457.94
2023-01-03T12:39:56.561Z,101457.94
2023-01-03T12:41:02.930Z,101459.66